Time;durP1;ratioP1;P1;durP2;ratioP2;P2;SDS_P1;SDS_P2;PMS_P1;PMS_P2;Temp;Humidity;BMP_temperature;BMP_pressure;BME280_temperature;BME280_humidity;BME280_pressure;Samples;Min_cycle;Max_cycle;Signal;HPM_P1;HPM_P2
2021/05/12 00:00:30;;;;;;;13.77;7.85;;;;;;;;;;5054347;28;20032;-65
2021/05/12 00:02:56;;;;;;;11.18;8.73;;;;;;;;;;5054203;28;20075;-65
2021/05/12 00:05:23;;;;;;;9.82;8.80;;;;;;;;;;5054200;28;20065;-65
2021/05/12 00:07:49;;;;;;;8.10;7.28;;;;;;;;;;5054046;28;20386;-65
2021/05/12 00:10:15;;;;;;;8.50;7.60;;;;;;;;;;5054206;28;20154;-65
2021/05/12 00:12:41;;;;;;;9.20;8.10;;;;;;;;;;5054297;28;20116;-65
2021/05/12 00:15:08;;;;;;;7.65;6.95;;;;;;;;;;5053890;28;20028;-65
2021/05/12 00:17:36;;;;;;;9.38;8.30;;;;;;;;;;5054122;28;20382;-65
2021/05/12 00:20:03;;;;;;;11.82;7.90;;;;;;;;;;5053909;28;20025;-64
2021/05/12 00:22:44;;;;;;;9.98;7.95;;;;;;;;;;5053670;28;20123;-64
2021/05/12 00:25:11;;;;;;;9.57;8.55;;;;;;;;;;5053539;28;20021;-65
2021/05/12 00:27:37;;;;;;;8.38;7.53;;;;;;;;;;5053661;28;20037;-65
2021/05/12 00:30:04;;;;;;;8.45;7.60;;;;;;;;;;5054038;28;20021;-65
2021/05/12 00:32:30;;;;;;;10.65;8.18;;;;;;;;;;5053751;28;20378;-65
2021/05/12 00:34:56;;;;;;;10.70;7.43;;;;;;;;;;5053718;28;20079;-65
2021/05/12 00:37:23;;;;;;;7.38;6.68;;;;;;;;;;5053707;28;20036;-65
2021/05/12 00:39:49;;;;;;;8.30;7.53;;;;;;;;;;5053546;28;20025;-65
2021/05/12 00:42:15;;;;;;;9.82;8.00;;;;;;;;;;5053976;28;20041;-64
2021/05/12 00:44:41;;;;;;;8.82;8.00;;;;;;;;;;5053525;28;20074;-65
2021/05/12 00:47:07;;;;;;;8.00;6.82;;;;;;;;;;5053160;28;20025;-65
2021/05/12 00:49:33;;;;;;;7.70;6.97;;;;;;;;;;5053383;28;20052;-64
2021/05/12 00:51:59;;;;;;;12.52;7.82;;;;;;;;;;5053186;28;20083;-65
2021/05/12 00:54:25;;;;;;;10.27;7.63;;;;;;;;;;5053243;28;20025;-65
2021/05/12 00:56:51;;;;;;;9.20;7.82;;;;;;;;;;5053346;28;20021;-65
2021/05/12 00:59:18;;;;;;;8.68;7.00;;;;;;;;;;5053566;28;20416;-64
2021/05/12 01:01:44;;;;;;;7.07;6.43;;;;;;;;;;5053536;28;20037;-65
2021/05/12 01:04:10;;;;;;;7.47;6.72;;;;;;;;;;5053353;28;20029;-65
2021/05/12 01:06:37;;;;;;;7.35;6.63;;;;;;;;;;5052974;28;20448;-65
2021/05/12 01:09:04;;;;;;;7.32;6.63;;;;;;;;;;5053221;28;20128;-64
2021/05/12 01:11:30;;;;;;;9.13;7.75;;;;;;;;;;5053380;28;20025;-65
2021/05/12 01:13:56;;;;;;;11.32;6.55;;;;;;;;;;5053586;28;20123;-64
2021/05/12 01:16:23;;;;;;;13.57;7.53;;;;;;;;;;5053145;28;20029;-65
2021/05/12 01:18:49;;;;;;;10.38;7.20;;;;;;;;;;5053128;28;20021;-65
2021/05/12 01:21:15;;;;;;;8.60;7.65;;;;;;;;;;5052871;28;20033;-65
2021/05/12 01:23:43;;;;;;;8.40;6.93;;;;;;;;;;5052986;28;20021;-65
2021/05/12 01:26:10;;;;;;;7.10;6.40;;;;;;;;;;5052915;28;20528;-64
2021/05/12 01:28:37;;;;;;;7.03;6.32;;;;;;;;;;5053035;28;20053;-64
2021/05/12 01:31:07;;;;;;;9.13;7.00;;;;;;;;;;5052637;28;20425;-65
2021/05/12 01:33:33;;;;;;;12.00;7.68;;;;;;;;;;5052864;28;20364;-65
2021/05/12 01:35:59;;;;;;;11.38;6.85;;;;;;;;;;5053035;28;20075;-65
2021/05/12 01:38:26;;;;;;;7.57;6.93;;;;;;;;;;5053095;28;20029;-64
2021/05/12 01:40:52;;;;;;;7.00;6.40;;;;;;;;;;5052835;28;20029;-65
2021/05/12 01:43:18;;;;;;;21.10;7.47;;;;;;;;;;5053027;28;20029;-65
2021/05/12 01:45:44;;;;;;;10.68;7.63;;;;;;;;;;5052898;28;20025;-64
2021/05/12 01:48:11;;;;;;;9.15;6.97;;;;;;;;;;5052752;28;20436;-64
2021/05/12 01:50:37;;;;;;;11.70;7.50;;;;;;;;;;5052478;28;20025;-65
2021/05/12 01:53:03;;;;;;;8.48;7.60;;;;;;;;;;5055074;28;20048;-64
2021/05/12 01:55:29;;;;;;;11.20;8.13;;;;;;;;;;5056702;28;20097;-65
2021/05/12 01:57:55;;;;;;;10.43;7.00;;;;;;;;;;5056813;28;20033;-64
2021/05/12 02:00:29;;;;;;;8.27;7.28;;;;;;;;;;5056456;28;20501;-64
2021/05/12 02:02:55;;;;;;;7.57;6.78;;;;;;;;;;5056049;28;20072;-65
2021/05/12 02:05:22;;;;;;;8.20;7.28;;;;;;;;;;5056319;28;20067;-64
2021/05/12 02:07:48;;;;;;;8.73;7.47;;;;;;;;;;5056890;28;20025;-65
2021/05/12 02:10:14;;;;;;;10.35;7.13;;;;;;;;;;5056728;28;20458;-65
2021/05/12 02:12:40;;;;;;;9.65;7.05;;;;;;;;;;5056207;28;20071;-65
2021/05/12 02:15:07;;;;;;;8.23;7.10;;;;;;;;;;5055924;28;20031;-64
2021/05/12 02:17:33;;;;;;;7.82;6.68;;;;;;;;;;5056044;28;20025;-65
2021/05/12 02:19:59;;;;;;;8.13;6.95;;;;;;;;;;5055955;28;20474;-65
2021/05/12 02:22:25;;;;;;;8.07;7.28;;;;;;;;;;5055997;28;20095;-64
2021/05/12 02:24:51;;;;;;;10.98;8.15;;;;;;;;;;5056035;28;20111;-65
2021/05/12 02:27:17;;;;;;;8.30;6.63;;;;;;;;;;5056194;28;20075;-65
2021/05/12 02:29:44;;;;;;;7.03;6.32;;;;;;;;;;5055949;28;20132;-64
2021/05/12 02:32:10;;;;;;;8.50;6.40;;;;;;;;;;5056085;28;20021;-65
2021/05/12 02:34:36;;;;;;;8.35;6.88;;;;;;;;;;5055719;28;20029;-64
2021/05/12 02:37:02;;;;;;;10.57;7.03;;;;;;;;;;5055807;28;20588;-65
2021/05/12 02:39:29;;;;;;;12.60;6.97;;;;;;;;;;5056164;28;20024;-64
2021/05/12 02:41:55;;;;;;;8.00;6.78;;;;;;;;;;5055919;28;20029;-64
2021/05/12 02:44:21;;;;;;;12.77;6.60;;;;;;;;;;5055778;28;20025;-64
2021/05/12 02:46:47;;;;;;;7.13;6.43;;;;;;;;;;5055520;28;20027;-65
2021/05/12 02:49:13;;;;;;;7.43;6.72;;;;;;;;;;5056298;28;20121;-64
2021/05/12 02:51:40;;;;;;;10.88;7.38;;;;;;;;;;5055527;28;20039;-64
2021/05/12 02:54:06;;;;;;;9.07;6.55;;;;;;;;;;5055608;28;20079;-65
2021/05/12 02:56:32;;;;;;;11.82;6.90;;;;;;;;;;5055836;28;20032;-64
2021/05/12 02:58:58;;;;;;;8.57;6.85;;;;;;;;;;5055302;28;20064;-64
2021/05/12 03:01:24;;;;;;;7.40;6.70;;;;;;;;;;5055184;28;20466;-65
2021/05/12 03:03:50;;;;;;;7.65;6.32;;;;;;;;;;5054452;28;20386;-64
2021/05/12 03:06:16;;;;;;;9.45;7.00;;;;;;;;;;5055460;28;20047;-64
2021/05/12 03:08:42;;;;;;;7.80;6.40;;;;;;;;;;5055730;28;20025;-65
2021/05/12 03:11:08;;;;;;;7.65;6.13;;;;;;;;;;5055277;28;20029;-65
2021/05/12 03:13:35;;;;;;;11.10;7.35;;;;;;;;;;5055248;28;20070;-65
2021/05/12 03:16:01;;;;;;;8.63;6.25;;;;;;;;;;5054949;28;20049;-65
2021/05/12 03:18:27;;;;;;;7.68;6.40;;;;;;;;;;5054969;28;20029;-64
2021/05/12 03:20:54;;;;;;;9.20;6.72;;;;;;;;;;5054970;28;20036;-64
2021/05/12 03:23:20;;;;;;;19.35;10.43;;;;;;;;;;5054818;28;20033;-64
2021/05/12 03:25:46;;;;;;;40.63;20.02;;;;;;;;;;5054807;28;20174;-64
2021/05/12 03:28:12;;;;;;;46.63;19.73;;;;;;;;;;5053980;28;20045;-65
2021/05/12 03:30:38;;;;;;;46.35;18.25;;;;;;;;;;5054738;28;20108;-65
2021/05/12 03:33:04;;;;;;;39.72;16.08;;;;;;;;;;5054416;28;20143;-65
2021/05/12 03:35:30;;;;;;;36.75;16.23;;;;;;;;;;5054856;28;20083;-64
2021/05/12 03:37:57;;;;;;;25.58;15.13;;;;;;;;;;5054869;28;20048;-65
2021/05/12 03:40:23;;;;;;;35.80;16.27;;;;;;;;;;5054911;28;20067;-65
2021/05/12 03:42:49;;;;;;;37.55;16.38;;;;;;;;;;5054300;28;20032;-65
2021/05/12 03:45:15;;;;;;;37.28;14.98;;;;;;;;;;5054404;28;20135;-65
2021/05/12 03:47:42;;;;;;;27.58;15.23;;;;;;;;;;5054381;28;20115;-64
2021/05/12 03:50:08;;;;;;;23.23;13.45;;;;;;;;;;5054723;28;20029;-64
2021/05/12 03:52:34;;;;;;;28.38;13.95;;;;;;;;;;5054863;28;20052;-64
2021/05/12 03:55:00;;;;;;;31.35;14.05;;;;;;;;;;5054206;28;20028;-65
2021/05/12 03:57:26;;;;;;;30.95;13.95;;;;;;;;;;5054551;28;20479;-64
2021/05/12 03:59:52;;;;;;;26.73;13.18;;;;;;;;;;5054246;28;20517;-64
2021/05/12 04:02:19;;;;;;;31.05;12.63;;;;;;;;;;5054196;28;20032;-65
2021/05/12 04:04:45;;;;;;;31.02;11.75;;;;;;;;;;5054378;28;20024;-64
2021/05/12 04:07:11;;;;;;;19.15;11.88;;;;;;;;;;5053933;28;20086;-64
2021/05/12 04:09:37;;;;;;;24.60;11.75;;;;;;;;;;5054388;28;20025;-64
2021/05/12 04:12:03;;;;;;;21.15;11.20;;;;;;;;;;5053963;28;20025;-65
2021/05/12 04:14:29;;;;;;;18.48;11.55;;;;;;;;;;5053698;28;20471;-64
2021/05/12 04:16:55;;;;;;;21.65;10.88;;;;;;;;;;5053464;28;20021;-65
2021/05/12 04:19:21;;;;;;;15.45;10.57;;;;;;;;;;5054188;28;20032;-64
2021/05/12 04:21:47;;;;;;;16.90;11.30;;;;;;;;;;5054032;28;20095;-64
2021/05/12 04:24:13;;;;;;;16.00;9.95;;;;;;;;;;5053806;28;20053;-64
2021/05/12 04:26:40;;;;;;;13.80;8.63;;;;;;;;;;5053811;28;20471;-65
2021/05/12 04:29:06;;;;;;;21.55;11.07;;;;;;;;;;5053882;28;20151;-66
2021/05/12 04:31:32;;;;;;;16.98;9.52;;;;;;;;;;5053286;28;20478;-66
2021/05/12 04:33:59;;;;;;;14.95;8.85;;;;;;;;;;5052237;28;20414;-67
2021/05/12 04:36:25;;;;;;;15.98;9.75;;;;;;;;;;5053789;28;20032;-66
2021/05/12 04:38:51;;;;;;;14.90;8.90;;;;;;;;;;5053353;28;20025;-66
2021/05/12 04:41:18;;;;;;;14.30;9.73;;;;;;;;;;5053421;28;20025;-65
2021/05/12 04:43:44;;;;;;;15.55;8.95;;;;;;;;;;5053538;28;20067;-65
2021/05/12 04:46:10;;;;;;;18.10;9.90;;;;;;;;;;5053044;28;20057;-66
2021/05/12 04:48:36;;;;;;;18.55;9.80;;;;;;;;;;5053182;28;20478;-66
2021/05/12 04:51:02;;;;;;;13.15;9.18;;;;;;;;;;5052870;28;20075;-66
2021/05/12 04:53:28;;;;;;;14.77;8.20;;;;;;;;;;5053060;28;20363;-66
2021/05/12 04:55:54;;;;;;;15.55;8.38;;;;;;;;;;5053287;28;20024;-65
2021/05/12 04:58:20;;;;;;;19.58;9.80;;;;;;;;;;5053044;28;20046;-65
2021/05/12 05:00:47;;;;;;;14.27;8.60;;;;;;;;;;5052753;28;20071;-67
2021/05/12 05:03:13;;;;;;;11.40;8.50;;;;;;;;;;5044397;28;20434;-66
2021/05/12 05:05:39;;;;;;;14.35;9.05;;;;;;;;;;5042430;28;20091;-64
2021/05/12 05:08:05;;;;;;;12.02;8.52;;;;;;;;;;5046825;28;20031;-65
2021/05/12 05:10:31;;;;;;;17.77;8.95;;;;;;;;;;5053205;28;20028;-64
2021/05/12 05:12:57;;;;;;;18.00;8.63;;;;;;;;;;5052732;28;20462;-65
2021/05/12 05:15:23;;;;;;;17.45;7.70;;;;;;;;;;5052677;28;20040;-65
2021/05/12 05:17:51;;;;;;;13.55;8.73;;;;;;;;;;5052696;28;20021;-64
2021/05/12 05:20:17;;;;;;;16.00;9.35;;;;;;;;;;5053279;28;20052;-65
2021/05/12 05:22:43;;;;;;;28.27;8.30;;;;;;;;;;5053116;28;20123;-65
2021/05/12 05:25:10;;;;;;;14.95;7.45;;;;;;;;;;5052697;28;20032;-65
2021/05/12 05:27:36;;;;;;;24.05;8.20;;;;;;;;;;5054373;28;20493;-64
2021/05/12 05:30:02;;;;;;;15.80;8.18;;;;;;;;;;5056053;28;20029;-65
2021/05/12 05:32:28;;;;;;;8.55;7.40;;;;;;;;;;5057240;28;20021;-65
2021/05/12 05:34:54;;;;;;;13.68;8.00;;;;;;;;;;5057001;28;20115;-65
2021/05/12 05:37:23;;;;;;;14.13;7.32;;;;;;;;;;5057124;28;20026;-65
2021/05/12 05:39:49;;;;;;;9.50;7.72;;;;;;;;;;5057210;28;20029;-64
2021/05/12 05:42:15;;;;;;;9.25;7.18;;;;;;;;;;5056647;28;20025;-65
2021/05/12 05:44:41;;;;;;;19.73;7.65;;;;;;;;;;5056547;28;20021;-65
2021/05/12 05:47:07;;;;;;;14.10;7.20;;;;;;;;;;5056356;28;20098;-65
2021/05/12 05:49:35;;;;;;;31.48;7.30;;;;;;;;;;5057434;28;20037;-65
2021/05/12 05:52:01;;;;;;;16.35;7.80;;;;;;;;;;5056578;28;20025;-67
2021/05/12 05:54:28;;;;;;;13.55;7.57;;;;;;;;;;5056786;28;20031;-67
2021/05/12 05:56:54;;;;;;;8.05;7.20;;;;;;;;;;5056471;28;20025;-67
2021/05/12 05:59:20;;;;;;;10.63;6.85;;;;;;;;;;5056606;28;20035;-67
2021/05/12 06:01:46;;;;;;;9.70;6.90;;;;;;;;;;5057117;28;20037;-67
2021/05/12 06:04:12;;;;;;;10.32;7.00;;;;;;;;;;5056924;28;20099;-67
2021/05/12 06:06:38;;;;;;;9.68;6.88;;;;;;;;;;5056632;28;20021;-65
2021/05/12 06:09:04;;;;;;;11.20;6.80;;;;;;;;;;5056234;28;20079;-66
2021/05/12 06:11:30;;;;;;;9.18;7.07;;;;;;;;;;5056708;28;20028;-65
2021/05/12 06:13:57;;;;;;;7.95;6.47;;;;;;;;;;5056144;28;20032;-65
2021/05/12 06:16:23;;;;;;;12.10;7.68;;;;;;;;;;5056119;28;20017;-67
2021/05/12 06:18:51;;;;;;;8.25;6.80;;;;;;;;;;5056245;28;20376;-66
2021/05/12 06:21:17;;;;;;;11.43;7.63;;;;;;;;;;5055823;28;20482;-67
2021/05/12 06:23:44;;;;;;;10.68;6.60;;;;;;;;;;5056286;28;20493;-65
2021/05/12 06:26:16;;;;;;;10.48;6.78;;;;;;;;;;5056019;28;20469;-66
2021/05/12 06:28:42;;;;;;;7.38;6.55;;;;;;;;;;5056131;28;20056;-66
2021/05/12 06:31:08;;;;;;;9.38;6.30;;;;;;;;;;5055877;28;20036;-66
2021/05/12 06:33:34;;;;;;;19.08;5.95;;;;;;;;;;5056002;28;20025;-67
2021/05/12 06:36:00;;;;;;;7.00;6.28;;;;;;;;;;5056045;28;20025;-67
2021/05/12 06:38:27;;;;;;;10.15;6.68;;;;;;;;;;5055991;28;20032;-65
2021/05/12 06:40:53;;;;;;;10.52;7.03;;;;;;;;;;5055601;28;20025;-67
2021/05/12 06:43:19;;;;;;;8.15;6.22;;;;;;;;;;5055852;28;20490;-66
2021/05/12 06:45:45;;;;;;;8.10;6.80;;;;;;;;;;5055930;28;20044;-66
2021/05/12 06:48:11;;;;;;;13.20;6.68;;;;;;;;;;5055930;28;20478;-65
2021/05/12 06:50:37;;;;;;;7.13;5.20;;;;;;;;;;5052906;28;20415;-67
2021/05/12 06:53:03;;;;;;;10.13;6.18;;;;;;;;;;5054405;28;20025;-67
2021/05/12 06:55:29;;;;;;;11.50;7.25;;;;;;;;;;5054675;28;20029;-68
2021/05/12 06:57:56;;;;;;;7.53;6.45;;;;;;;;;;5054569;28;20029;-68
2021/05/12 07:00:22;;;;;;;15.93;6.90;;;;;;;;;;5052103;28;20036;-67
2021/05/12 07:02:48;;;;;;;9.43;5.90;;;;;;;;;;5054729;28;20088;-67
2021/05/12 07:05:15;;;;;;;10.35;6.10;;;;;;;;;;5055177;28;20025;-70
2021/05/12 07:07:43;;;;;;;8.85;6.22;;;;;;;;;;5055369;28;20025;-67
2021/05/12 07:10:09;;;;;;;7.13;6.40;;;;;;;;;;5056029;28;20104;-68
2021/05/12 07:12:36;;;;;;;13.93;6.03;;;;;;;;;;5055399;28;20035;-70
2021/05/12 07:15:03;;;;;;;18.45;6.18;;;;;;;;;;5055047;28;20021;-68
2021/05/12 07:17:29;;;;;;;11.60;7.05;;;;;;;;;;5054896;28;20037;-68
2021/05/12 07:19:55;;;;;;;12.27;6.28;;;;;;;;;;5055149;28;20458;-68
2021/05/12 07:22:21;;;;;;;10.75;6.18;;;;;;;;;;5055290;28;20025;-67
2021/05/12 07:24:47;;;;;;;11.48;7.15;;;;;;;;;;5054115;28;20374;-68
2021/05/12 07:27:14;;;;;;;7.68;6.00;;;;;;;;;;5054353;28;20021;-67
2021/05/12 07:29:40;;;;;;;8.80;6.18;;;;;;;;;;5053952;28;20490;-66
2021/05/12 07:32:06;;;;;;;8.80;6.38;;;;;;;;;;5054882;28;20029;-69
2021/05/12 07:34:32;;;;;;;8.73;5.45;;;;;;;;;;5055168;28;20021;-68
2021/05/12 07:36:58;;;;;;;10.23;6.25;;;;;;;;;;5055555;28;20032;-67
2021/05/12 07:39:24;;;;;;;10.02;6.47;;;;;;;;;;5055810;28;20520;-65
2021/05/12 07:41:52;;;;;;;11.30;5.95;;;;;;;;;;5054540;28;20124;-65
2021/05/12 07:44:18;;;;;;;12.80;6.05;;;;;;;;;;5053704;28;20025;-65
2021/05/12 07:46:44;;;;;;;7.75;5.75;;;;;;;;;;5054120;28;20067;-67
2021/05/12 07:49:10;;;;;;;16.70;5.57;;;;;;;;;;5055309;28;20035;-65
2021/05/12 07:51:36;;;;;;;8.00;6.22;;;;;;;;;;5053540;28;20029;-69
2021/05/12 07:54:02;;;;;;;10.32;5.65;;;;;;;;;;5054266;28;20044;-68
2021/05/12 07:56:29;;;;;;;7.63;5.88;;;;;;;;;;5053698;28;20032;-66
2021/05/12 07:58:55;;;;;;;8.63;6.03;;;;;;;;;;5054050;28;20379;-67
2021/05/12 08:01:25;;;;;;;11.27;6.00;;;;;;;;;;5054360;28;20059;-67
2021/05/12 08:03:51;;;;;;;8.18;5.50;;;;;;;;;;5054322;28;20435;-67
2021/05/12 08:06:17;;;;;;;13.18;5.80;;;;;;;;;;5054663;28;20025;-67
2021/05/12 08:08:43;;;;;;;7.50;5.70;;;;;;;;;;5053836;28;20397;-67
2021/05/12 08:11:09;;;;;;;7.63;4.95;;;;;;;;;;5053285;28;20135;-66
2021/05/12 08:13:35;;;;;;;6.72;5.55;;;;;;;;;;5054391;28;20025;-66
2021/05/12 08:16:01;;;;;;;10.40;5.47;;;;;;;;;;5053957;28;20025;-66
2021/05/12 08:18:28;;;;;;;12.90;5.75;;;;;;;;;;5053770;28;20025;-64
2021/05/12 08:20:56;;;;;;;8.10;5.43;;;;;;;;;;5053332;28;20021;-66
2021/05/12 08:23:23;;;;;;;6.07;5.47;;;;;;;;;;5053693;28;20033;-67
2021/05/12 08:25:49;;;;;;;7.03;4.88;;;;;;;;;;5053899;28;20025;-65
2021/05/12 08:28:15;;;;;;;12.82;5.47;;;;;;;;;;5053041;28;20124;-65
2021/05/12 08:30:49;;;;;;;10.02;6.00;;;;;;;;;;5053743;28;20454;-65
2021/05/12 08:33:15;;;;;;;7.93;5.03;;;;;;;;;;5054221;28;20029;-65
2021/05/12 08:35:42;;;;;;;6.10;4.85;;;;;;;;;;5053736;28;20017;-65
2021/05/12 08:38:08;;;;;;;8.32;4.68;;;;;;;;;;5053694;28;20026;-65
2021/05/12 08:40:35;;;;;;;5.85;4.50;;;;;;;;;;5054028;28;20025;-65
2021/05/12 08:43:02;;;;;;;5.80;5.10;;;;;;;;;;5053747;28;20033;-65
2021/05/12 08:45:28;;;;;;;5.78;4.82;;;;;;;;;;5053694;28;20053;-64
2021/05/12 08:47:54;;;;;;;6.00;5.07;;;;;;;;;;5053014;28;20043;-64
2021/05/12 08:50:21;;;;;;;5.43;4.63;;;;;;;;;;5052884;28;20025;-65
2021/05/12 08:52:47;;;;;;;7.70;4.95;;;;;;;;;;5051967;28;20029;-66
2021/05/12 08:55:14;;;;;;;12.02;5.60;;;;;;;;;;5053379;28;20040;-67
2021/05/12 08:57:40;;;;;;;9.77;5.30;;;;;;;;;;5053934;28;20025;-66
2021/05/12 09:00:06;;;;;;;8.13;5.43;;;;;;;;;;5053262;28;20051;-66
2021/05/12 09:02:33;;;;;;;9.82;4.97;;;;;;;;;;5052479;28;20041;-65
2021/05/12 09:04:59;;;;;;;10.57;5.88;;;;;;;;;;5053192;28;20044;-67
2021/05/12 09:07:25;;;;;;;11.38;6.90;;;;;;;;;;5053038;28;20103;-67
2021/05/12 09:09:51;;;;;;;7.25;5.93;;;;;;;;;;5053516;28;20485;-67
2021/05/12 09:12:17;;;;;;;5.90;4.95;;;;;;;;;;5053261;28;20017;-66
2021/05/12 09:14:43;;;;;;;8.75;7.85;;;;;;;;;;5053340;28;20059;-66
2021/05/12 09:17:09;;;;;;;14.05;9.35;;;;;;;;;;5052935;28;20029;-67
2021/05/12 09:19:36;;;;;;;11.60;9.20;;;;;;;;;;5053463;28;20407;-66
2021/05/12 09:22:02;;;;;;;7.30;6.63;;;;;;;;;;5053044;28;20032;-66
2021/05/12 09:24:36;;;;;;;15.30;8.18;;;;;;;;;;5053292;28;20435;-65
2021/05/12 09:27:04;;;;;;;8.93;7.18;;;;;;;;;;5052919;28;20024;-65
2021/05/12 09:29:31;;;;;;;7.60;6.90;;;;;;;;;;5052813;28;20060;-66
2021/05/12 09:32:17;;;;;;;9.00;7.43;;;;;;;;;;5052735;28;20033;-66
2021/05/12 09:35:03;;;;;;;9.07;8.18;;;;;;;;;;5051563;28;20025;-66
2021/05/12 09:37:31;;;;;;;11.20;8.68;;;;;;;;;;5052964;28;20391;-65
2021/05/12 09:39:58;;;;;;;10.63;9.45;;;;;;;;;;5053235;28;20029;-65
2021/05/12 09:42:24;;;;;;;15.52;13.95;;;;;;;;;;5052759;28;20040;-65
2021/05/12 09:45:10;;;;;;;12.13;10.98;;;;;;;;;;5052648;28;20021;-65
2021/05/12 09:47:36;;;;;;;13.32;11.45;;;;;;;;;;5051994;28;20025;-65
2021/05/12 09:50:21;;;;;;;15.32;11.02;;;;;;;;;;5053519;28;20024;-65
2021/05/12 09:52:48;;;;;;;13.57;9.27;;;;;;;;;;5052649;28;20025;-65
2021/05/12 09:55:14;;;;;;;8.45;7.65;;;;;;;;;;5052849;28;20029;-64
2021/05/12 09:58:00;;;;;;;9.50;8.50;;;;;;;;;;5052791;28;20029;-66
2021/05/12 10:00:27;;;;;;;11.15;10.02;;;;;;;;;;5051763;28;20047;-65
2021/05/12 10:02:54;;;;;;;25.15;11.38;;;;;;;;;;5052315;28;20075;-65
2021/05/12 10:05:20;;;;;;;11.85;10.23;;;;;;;;;;5052526;28;20036;-65
2021/05/12 10:07:50;;;;;;;12.13;10.93;;;;;;;;;;5052554;28;20025;-64
2021/05/12 10:10:33;;;;;;;11.65;10.45;;;;;;;;;;5052329;28;20025;-64
2021/05/12 10:12:59;;;;;;;13.90;11.55;;;;;;;;;;5052841;28;20025;-66
2021/05/12 10:15:25;;;;;;;13.07;10.65;;;;;;;;;;5056113;28;20021;-66
2021/05/12 10:17:52;;;;;;;11.55;10.40;;;;;;;;;;5056311;28;20029;-66
2021/05/12 10:20:18;;;;;;;11.98;10.80;;;;;;;;;;5056417;28;20378;-66
2021/05/12 10:22:44;;;;;;;11.95;10.85;;;;;;;;;;5055833;28;20538;-66
2021/05/12 10:25:10;;;;;;;11.65;10.15;;;;;;;;;;5055727;28;20025;-67
2021/05/12 10:27:36;;;;;;;10.40;9.50;;;;;;;;;;5056059;28;20032;-66
2021/05/12 10:30:03;;;;;;;12.32;8.70;;;;;;;;;;5052717;28;20580;-66
2021/05/12 10:32:35;;;;;;;8.88;8.18;;;;;;;;;;5054324;28;20025;-66
2021/05/12 10:35:04;;;;;;;15.02;9.00;;;;;;;;;;5055021;28;20098;-71
2021/05/12 10:37:31;;;;;;;8.52;7.47;;;;;;;;;;5054893;28;20120;-66
2021/05/12 10:40:00;;;;;;;11.48;7.60;;;;;;;;;;5054133;28;20037;-68
2021/05/12 10:42:48;;;;;;;10.32;7.90;;;;;;;;;;5053545;28;20036;-67
2021/05/12 10:45:20;;;;;;;7.95;7.15;;;;;;;;;;5054109;28;20063;-68
2021/05/12 10:47:47;;;;;;;8.88;7.93;;;;;;;;;;5055576;28;20047;-67
2021/05/12 10:50:13;;;;;;;8.80;7.95;;;;;;;;;;5055624;28;20028;-66
2021/05/12 10:52:39;;;;;;;8.32;7.63;;;;;;;;;;5055787;28;20025;-65
2021/05/12 10:55:05;;;;;;;7.72;6.85;;;;;;;;;;5055377;28;20021;-65
2021/05/12 10:57:47;;;;;;;17.08;6.93;;;;;;;;;;5055464;28;20028;-65
2021/05/12 11:00:14;;;;;;;6.63;6.03;;;;;;;;;;5055330;28;20025;-67
2021/05/12 11:03:02;;;;;;;5.95;5.38;;;;;;;;;;5055058;28;20048;-67
2021/05/12 11:05:44;;;;;;;7.28;6.50;;;;;;;;;;5055135;28;20466;-67
2021/05/12 11:08:10;;;;;;;;;;;;;;;;;;5055577;28;20536;-66
2021/05/12 11:10:52;;;;;;;5.40;4.90;;;;;;;;;;5054987;28;20009;-67
2021/05/12 11:13:18;;;;;;;6.50;5.90;;;;;;;;;;5056046;28;20060;-66
2021/05/12 11:15:52;;;;;;;15.20;6.20;;;;;;;;;;5055209;28;20052;-65
2021/05/12 11:18:39;;;;;;;11.35;5.82;;;;;;;;;;5052173;28;20029;-67
2021/05/12 11:21:34;;;;;;;8.65;5.55;;;;;;;;;;5053310;28;20535;-68
2021/05/12 11:24:21;;;;;;;6.03;5.43;;;;;;;;;;5054165;28;20040;-67
2021/05/12 11:26:58;;;;;;;6.65;5.50;;;;;;;;;;5035234;28;20594;-70
2021/05/12 11:32:12;;;;;;;5.53;4.90;;;;;;;;;;5034165;28;20026;-67
2021/05/12 11:34:38;;;;;;;17.60;4.85;;;;;;;;;;5039707;28;20477;-68
2021/05/12 11:37:06;;;;;;;6.57;5.15;;;;;;;;;;5074373;28;20021;-67
2021/05/12 11:39:33;;;;;;;8.00;5.82;;;;;;;;;;5068385;28;20028;-67
2021/05/12 11:41:59;;;;;;;6.22;5.40;;;;;;;;;;5054539;28;20029;-66
2021/05/12 11:44:25;;;;;;;14.68;6.43;;;;;;;;;;5054333;28;20677;-66
2021/05/12 11:46:54;;;;;;;9.02;6.47;;;;;;;;;;5074144;28;20020;-67
2021/05/12 11:49:22;;;;;;;6.75;6.10;;;;;;;;;;5074774;28;20032;-66
2021/05/12 11:51:48;;;;;;;7.47;5.78;;;;;;;;;;5074765;28;20032;-67
2021/05/12 11:54:16;;;;;;;8.30;6.97;;;;;;;;;;5074680;28;20388;-66
2021/05/12 11:56:42;;;;;;;13.55;8.02;;;;;;;;;;5072762;28;20095;-66
2021/05/12 11:59:10;;;;;;;8.15;7.28;;;;;;;;;;5074432;28;20127;-67
2021/05/12 12:01:42;;;;;;;9.38;7.80;;;;;;;;;;5074227;28;20076;-67
2021/05/12 12:06:54;;;;;;;9.00;7.68;;;;;;;;;;5073178;28;20386;-67
2021/05/12 12:09:21;;;;;;;6.72;5.80;;;;;;;;;;5073979;28;20174;-67
2021/05/12 12:11:47;;;;;;;8.73;6.22;;;;;;;;;;5074657;28;20024;-68
2021/05/12 12:14:13;;;;;;;14.07;7.88;;;;;;;;;;5075109;28;20154;-67
2021/05/12 12:16:40;;;;;;;7.68;6.90;;;;;;;;;;5058967;28;20025;-66
2021/05/12 12:19:09;;;;;;;9.27;7.82;;;;;;;;;;5054184;28;20458;-68
2021/05/12 12:21:35;;;;;;;11.23;8.82;;;;;;;;;;5054008;28;20025;-68
2021/05/12 12:24:07;;;;;;;10.40;9.40;;;;;;;;;;5053043;28;20490;-68
2021/05/12 12:26:36;;;;;;;8.05;6.68;;;;;;;;;;5071203;28;20416;-68
2021/05/12 12:29:03;;;;;;;10.50;7.22;;;;;;;;;;5074461;28;20049;-67
2021/05/12 12:31:30;;;;;;;12.68;9.57;;;;;;;;;;5074079;28;20021;-67
2021/05/12 12:34:18;;;;;;;11.55;9.75;;;;;;;;;;5074348;28;20097;-66
2021/05/12 12:36:46;;;;;;;13.20;11.82;;;;;;;;;;5052639;28;20104;-67
2021/05/12 12:39:12;;;;;;;12.32;10.25;;;;;;;;;;5054123;28;20362;-67
2021/05/12 12:41:38;;;;;;;14.98;11.85;;;;;;;;;;5053593;28;20029;-66
2021/05/12 12:44:04;;;;;;;20.48;12.73;;;;;;;;;;5053626;28;20025;-66
2021/05/12 12:46:30;;;;;;;22.00;18.33;;;;;;;;;;5069536;28;20027;-67
2021/05/12 12:48:56;;;;;;;15.30;13.80;;;;;;;;;;5073197;28;20452;-66
2021/05/12 12:51:38;;;;;;;15.65;14.20;;;;;;;;;;5073586;28;20032;-67
2021/05/12 12:54:05;;;;;;;18.75;13.88;;;;;;;;;;5073730;28;20032;-66
2021/05/12 12:56:31;;;;;;;17.95;16.25;;;;;;;;;;5059508;28;20107;-66
2021/05/12 12:59:14;;;;;;;18.55;16.08;;;;;;;;;;5052975;28;20071;-66
2021/05/12 13:01:40;;;;;;;15.57;14.00;;;;;;;;;;5052878;28;20508;-66
2021/05/12 13:04:23;;;;;;;17.40;15.60;;;;;;;;;;5053465;28;20035;-66
2021/05/12 13:07:05;;;;;;;16.90;15.23;;;;;;;;;;5052959;28;20029;-67
2021/05/12 13:09:31;;;;;;;18.02;14.90;;;;;;;;;;5053153;28;20031;-67
2021/05/12 13:11:57;;;;;;;20.92;15.75;;;;;;;;;;5052952;28;20037;-68
2021/05/12 13:14:24;;;;;;;16.52;14.85;;;;;;;;;;5052694;28;20021;-67
2021/05/12 13:16:50;;;;;;;17.00;15.23;;;;;;;;;;5052854;28;20079;-67
2021/05/12 13:19:19;;;;;;;21.75;16.70;;;;;;;;;;5053621;28;20029;-67
2021/05/12 13:21:48;;;;;;;18.48;16.50;;;;;;;;;;5053140;28;20065;-67
2021/05/12 13:24:20;;;;;;;19.80;17.73;;;;;;;;;;5052988;28;20028;-67
2021/05/12 13:26:46;;;;;;;20.25;18.10;;;;;;;;;;5053082;28;20111;-65
2021/05/12 13:29:13;;;;;;;18.52;16.73;;;;;;;;;;5052929;28;20487;-65
2021/05/12 13:31:39;;;;;;;18.00;16.20;;;;;;;;;;5052997;28;20025;-67
2021/05/12 13:34:08;;;;;;;20.08;17.88;;;;;;;;;;5053176;28;20025;-66
2021/05/12 13:36:34;;;;;;;30.90;17.85;;;;;;;;;;5052045;28;20123;-68
2021/05/12 13:39:02;;;;;;;20.38;18.38;;;;;;;;;;5052316;28;20155;-67
2021/05/12 13:41:28;;;;;;;20.38;18.30;;;;;;;;;;5052906;28;20036;-68
2021/05/12 13:43:54;;;;;;;22.95;18.77;;;;;;;;;;5052994;28;20017;-67
2021/05/12 13:46:20;;;;;;;24.55;18.75;;;;;;;;;;5052812;28;20040;-67
2021/05/12 13:48:46;;;;;;;19.48;17.52;;;;;;;;;;5054487;28;20033;-67
2021/05/12 13:51:12;;;;;;;19.30;16.40;;;;;;;;;;5057100;28;20032;-67
2021/05/12 13:53:48;;;;;;;23.58;19.00;;;;;;;;;;5056655;28;20035;-67
2021/05/12 13:56:19;;;;;;;20.35;18.40;;;;;;;;;;5057258;28;20024;-67
2021/05/12 13:59:16;;;;;;;21.73;19.60;;;;;;;;;;5056962;28;20098;-67
2021/05/12 14:01:54;;;;;;;19.90;17.95;;;;;;;;;;5056126;28;20033;-67
2021/05/12 14:04:17;;;;;;;20.80;18.85;;;;;;;;;;5055167;28;20478;-70
2021/05/12 14:06:43;;;;;;;22.52;20.23;;;;;;;;;;5056663;28;20039;-69
2021/05/12 14:09:14;;;;;;;27.20;24.30;;;;;;;;;;5056328;28;20431;-69
2021/05/12 14:11:45;;;;;;;30.55;22.63;;;;;;;;;;5057023;28;20055;-68
2021/05/12 14:17:05;;;;;;;20.60;18.55;;;;;;;;;;5055437;28;20048;-67
2021/05/12 14:19:31;;;;;;;16.85;15.05;;;;;;;;;;5056666;28;20049;-67
2021/05/12 14:21:57;;;;;;;19.33;17.40;;;;;;;;;;5056104;28;20036;-68
2021/05/12 14:24:26;;;;;;;18.27;16.38;;;;;;;;;;5056617;28;20386;-67
2021/05/12 14:26:54;;;;;;;18.02;16.10;;;;;;;;;;5055857;28;20096;-67
2021/05/12 14:29:29;;;;;;;16.50;15.00;;;;;;;;;;5056521;28;20179;-67
2021/05/12 14:31:55;;;;;;;17.48;14.52;;;;;;;;;;5056084;28;20490;-66
2021/05/12 14:34:22;;;;;;;15.10;13.60;;;;;;;;;;5056122;28;20425;-67
2021/05/12 14:36:50;;;;;;;17.65;14.93;;;;;;;;;;5055642;28;20036;-68
2021/05/12 14:39:16;;;;;;;20.08;15.10;;;;;;;;;;5056062;28;20090;-67
2021/05/12 14:41:42;;;;;;;18.92;17.02;;;;;;;;;;5055526;28;20029;-66
2021/05/12 14:44:08;;;;;;;18.10;16.30;;;;;;;;;;5055530;28;20033;-66